| time (UTC) | temp F | wind direction | speed MPH | gust MPH | rain 1hr in | rain 24hr in | rain mn in | humidity % | barometer mb |
| 20260510185217 | 59 | 47 | 1.0 | 5.0 | 0.00 | 0.00 | 0.00 | 57 | 1008.0 |
| 20260510184257 | 59 | 13 | 1.0 | 3.0 | 0.00 | 0.00 | 0.00 | 57 | 1008.0 |
| 20260510183217 | 60 | 23 | 1.0 | 3.0 | 0.00 | 0.00 | 0.00 | 55 | 1007.9 |
| 20260510182257 | 61 | 33 | 1.0 | 3.0 | 0.00 | 0.00 | 0.00 | 54 | 1008.1 |
| 20260510181216 | 61 | 22 | 1.0 | 3.0 | 0.00 | 0.00 | 0.00 | 54 | 1008.0 |
| 20260510180217 | 62 | 9 | 1.0 | 4.0 | 0.00 | 0.00 | 0.00 | 52 | 1008.0 |
| 20260510175216 | 62 | 80 | 2.0 | 3.0 | 0.00 | 0.00 | 0.00 | 50 | 1008.1 |
| 20260510174217 | 62 | 52 | 1.0 | 3.0 | 0.00 | 0.00 | 0.00 | 49 | 1008.2 |
| 20260510173236 | 63 | 45 | 0.0 | 3.0 | 0.00 | 0.00 | 0.00 | 48 | 1008.2 |
| 20260510172216 | 63 | 63 | 0.0 | 3.0 | 0.00 | 0.00 | 0.00 | 48 | 1008.3 |
| 20260510171216 | 63 | 80 | 1.0 | 2.0 | 0.00 | 0.00 | 0.00 | 48 | 1008.4 |
| 20260510170217 | 64 | 334 | 3.0 | 7.0 | 0.00 | 0.00 | 0.00 | 46 | 1008.2 |
| 20260510165256 | 64 | 18 | 1.0 | 3.0 | 0.00 | 0.00 | 0.00 | 47 | 1008.2 |
| 20260510164237 | 64 | 18 | 2.0 | 7.0 | 0.00 | 0.00 | 0.00 | 45 | 1008.1 |
| 20260510163257 | 65 | 15 | 0.0 | 6.0 | 0.00 | 0.00 | 0.00 | 46 | 1008.2 |
| 20260510162236 | 65 | 325 | 0.0 | 4.0 | 0.00 | 0.00 | 0.00 | 45 | 1008.4 |
| 20260510161216 | 65 | 7 | 0.0 | 6.0 | 0.00 | 0.00 | 0.00 | 45 | 1008.5 |
| 20260510160216 | 65 | 350 | 0.0 | 2.0 | 0.00 | 0.00 | 0.00 | 45 | 1008.5 |
| 20260510155237 | 65 | 57 | 0.0 | 8.0 | 0.00 | 0.00 | 0.00 | 45 | 1008.6 |
| 20260510154237 | 66 | 43 | 0.0 | 3.0 | 0.00 | 0.00 | 0.00 | 45 | 1008.7 |
| 20260510153218 | 66 | 54 | 0.0 | 2.0 | 0.00 | 0.00 | 0.00 | 45 | 1008.8 |
| 20260510152217 | 66 | 49 | 0.0 | 1.0 | 0.00 | 0.00 | 0.00 | 44 | 1008.9 |
| 20260510151237 | 66 | 360 | 0.0 | 3.0 | 0.00 | 0.00 | 0.00 | 44 | 1009.1 |
| 20260510150217 | 66 | 6 | 1.0 | 6.0 | 0.00 | 0.00 | 0.00 | 44 | 1009.3 |
| 20260510145216 | 66 | 46 | 0.0 | 2.0 | 0.00 | 0.00 | 0.00 | 45 | 1009.4 |
| 20260510144237 | 66 | 50 | 1.0 | 5.0 | 0.00 | 0.00 | 0.00 | 44 | 1009.6 |
| 20260510143216 | 67 | 328 | 1.0 | 6.0 | 0.00 | 0.00 | 0.00 | 41 | 1009.7 |
| 20260510142216 | 67 | 347 | 0.0 | 5.0 | 0.00 | 0.00 | 0.00 | 43 | 1009.9 |
| 20260510141336 | 68 | 13 | 0.0 | 3.0 | 0.00 | 0.00 | 0.00 | 43 | 1010.0 |
| 20260510140216 | 68 | 68 | 0.0 | 2.0 | 0.00 | 0.00 | 0.00 | 42 | 1010.1 |
| 20260510135236 | 68 | 358 | 1.0 | 5.0 | 0.00 | 0.00 | 0.00 | 45 | 1010.2 |
| 20260510134217 | 68 | 324 | 3.0 | 6.0 | 0.00 | 0.00 | 0.00 | 43 | 1010.3 |
| 20260510133216 | 68 | 55 | 2.0 | 10.0 | 0.00 | 0.00 | 0.00 | 43 | 1010.5 |
| 20260510132216 | 69 | 44 | 1.0 | 7.0 | 0.00 | 0.00 | 0.00 | 43 | 1010.6 |
| 20260510131217 | 69 | 337 | 3.0 | 8.0 | 0.00 | 0.00 | 0.00 | 41 | 1010.7 |
| 20260510130216 | 69 | 66 | 0.0 | 1.0 | 0.00 | 0.00 | 0.00 | 42 | 1010.9 |
| 20260510125236 | 69 | 340 | 3.0 | 6.0 | 0.00 | 0.00 | 0.00 | 42 | 1010.9 |
| 20260510124257 | 70 | 343 | 2.0 | 4.0 | 0.00 | 0.00 | 0.00 | 39 | 1011.1 |
| 20260510123221 | 71 | 324 | 1.0 | 5.0 | 0.00 | 0.00 | 0.00 | 37 | 1011.1 |
| 20260510122216 | 72 | 29 | 1.0 | 4.0 | 0.00 | 0.00 | 0.00 | 37 | 1011.3 |
| 20260510121216 | 73 | 29 | 1.0 | 3.0 | 0.00 | 0.00 | 0.00 | 35 | 1011.4 |
| 20260510120216 | 74 | 337 | 2.0 | 7.0 | 0.00 | 0.00 | 0.00 | 33 | 1011.6 |
| 20260510115216 | 74 | 45 | 1.0 | 3.0 | 0.00 | 0.00 | 0.00 | 35 | 1011.7 |
| 20260510114216 | 73 | 16 | 1.0 | 4.0 | 0.00 | 0.00 | 0.00 | 36 | 1011.8 |
| 20260510113216 | 72 | 55 | 0.0 | 4.0 | 0.00 | 0.00 | 0.00 | 38 | 1012.0 |
| 20260510112216 | 74 | 70 | 0.0 | 2.0 | 0.00 | 0.00 | 0.00 | 33 | 1012.0 |
| 20260510111216 | 73 | 31 | 2.0 | 4.0 | 0.00 | 0.00 | 0.00 | 36 | 1012.2 |
| 20260510110236 | 73 | 69 | 1.0 | 5.0 | 0.00 | 0.00 | 0.00 | 36 | 1012.2 |
| 20260510105216 | 72 | 296 | 1.0 | 3.0 | 0.00 | 0.00 | 0.00 | 38 | 1012.3 |
| 20260510104216 | 70 | 33 | 2.0 | 3.0 | 0.00 | 0.00 | 0.00 | 40 | 1012.4 |
| 20260510103216 | 70 | 357 | 2.0 | 5.0 | 0.00 | 0.00 | 0.00 | 42 | 1012.4 |
| 20260510102216 | 69 | 22 | 1.0 | 4.0 | 0.00 | 0.00 | 0.00 | 40 | 1012.5 |
| 20260510101216 | 70 | 47 | 2.0 | 5.0 | 0.00 | 0.00 | 0.00 | 38 | 1012.6 |
| 20260510100216 | 70 | 21 | 2.0 | 4.0 | 0.00 | 0.00 | 0.00 | 41 | 1012.7 |
| 20260510095236 | 69 | 34 | 0.0 | 2.0 | 0.00 | 0.00 | 0.00 | 46 | 1012.7 |
| 20260510094216 | 70 | 348 | 2.0 | 4.0 | 0.00 | 0.00 | 0.00 | 44 | 1012.8 |
| 20260510093216 | 70 | 331 | 2.0 | 7.0 | 0.00 | 0.00 | 0.00 | 43 | 1012.9 |
| 20260510092216 | 69 | 17 | 0.0 | 3.0 | 0.00 | 0.00 | 0.00 | 46 | 1013.0 |
| 20260510091216 | 69 | 73 | 1.0 | 3.0 | 0.00 | 0.00 | 0.00 | 45 | 1013.1 |
| 20260510090217 | 67 | 316 | 2.0 | 4.0 | 0.00 | 0.00 | 0.00 | 50 | 1013.2 |
| 20260510085216 | 66 | 328 | 5.0 | 8.0 | 0.00 | 0.00 | 0.00 | 52 | 1013.2 |
| 20260510084216 | 64 | 334 | 2.0 | 5.0 | 0.00 | 0.00 | 0.00 | 53 | 1013.2 |
| 20260510083216 | 64 | 5 | 1.0 | 3.0 | 0.00 | 0.00 | 0.00 | 57 | 1013.2 |
| 20260510082216 | 62 | 5 | 3.0 | 6.0 | 0.00 | 0.00 | 0.00 | 57 | 1013.3 |
| 20260510081220 | 62 | 339 | 2.0 | 4.0 | 0.00 | 0.00 | 0.00 | 58 | 1013.4 |
| 20260510080216 | 61 | 342 | 1.0 | 3.0 | 0.00 | 0.00 | 0.00 | 59 | 1013.4 |
| 20260510075215 | 60 | 333 | 0.0 | 4.0 | 0.00 | 0.00 | 0.00 | 61 | 1013.5 |
| 20260510074215 | 59 | 336 | 2.0 | 5.0 | 0.00 | 0.00 | 0.00 | 62 | 1013.5 |
| 20260510073216 | 58 | 356 | 1.0 | 8.0 | 0.00 | 0.00 | 0.00 | 65 | 1013.6 |
| 20260510072215 | 57 | 328 | 4.0 | 8.0 | 0.00 | 0.00 | 0.00 | 66 | 1013.7 |
| 20260510071215 | 56 | 316 | 3.0 | 10.0 | 0.00 | 0.00 | 0.00 | 68 | 1013.7 |
| 20260510070256 | 55 | 328 | 2.0 | 6.0 | 0.00 | 0.00 | 0.00 | 72 | 1013.8 |
| 20260510065236 | 53 | 41 | 2.0 | 6.0 | 0.00 | 0.00 | 0.00 | 74 | 1013.7 |
| 20260510064235 | 52 | 328 | 3.0 | 8.0 | 0.00 | 0.00 | 0.00 | 76 | 1013.7 |
| 20260510063215 | 51 | 333 | 2.0 | 4.0 | 0.00 | 0.00 | 0.00 | 79 | 1013.6 |
| 20260510062216 | 51 | 332 | 1.0 | 3.0 | 0.00 | 0.00 | 0.00 | 80 | 1013.7 |
| 20260510061215 | 50 | 325 | 1.0 | 4.0 | 0.00 | 0.00 | 0.00 | 81 | 1013.7 |
| 20260510060216 | 49 | 320 | 2.0 | 8.0 | 0.00 | 0.00 | 0.00 | 82 | 1013.7 |
| 20260510055216 | 49 | 321 | 1.0 | 5.0 | 0.00 | 0.00 | 0.00 | 83 | 1013.6 |
| 20260510054235 | 49 | 0.0 | 0.0 | 0.00 | 0.00 | 0.00 | 84 | 1013.7 | |
| 20260510053236 | 49 | 0.0 | 2.0 | 0.00 | 0.00 | 0.00 | 84 | 1013.7 | |
| 20260510052217 | 49 | 9 | 0.0 | 2.0 | 0.00 | 0.00 | 0.00 | 86 | 1013.7 |
| 20260510051235 | 48 | 15 | 0.0 | 2.0 | 0.00 | 0.00 | 0.00 | 86 | 1013.7 |
| 20260510050235 | 48 | 340 | 0.0 | 2.0 | 0.00 | 0.00 | 0.00 | 87 | 1013.7 |
| 20260510045215 | 48 | 0.0 | 2.0 | 0.00 | 0.00 | 0.00 | 87 | 1013.6 | |
| 20260510044215 | 48 | 324 | 1.0 | 2.0 | 0.00 | 0.00 | 0.00 | 88 | 1013.7 |
| 20260510043255 | 47 | 346 | 0.0 | 2.0 | 0.00 | 0.00 | 0.00 | 88 | 1013.6 |
| 20260510042215 | 47 | 331 | 0.0 | 3.0 | 0.00 | 0.00 | 0.00 | 88 | 1013.7 |
| 20260510041215 | 47 | 0.0 | 0.0 | 0.00 | 0.00 | 0.00 | 88 | 1013.6 | |
| 20260510040215 | 47 | 0.0 | 0.0 | 0.00 | 0.00 | 0.00 | 88 | 1013.6 | |
| 20260510035215 | 47 | 0.0 | 0.0 | 0.00 | 0.00 | 0.00 | 88 | 1013.6 | |
| 20260510034215 | 46 | 0.0 | 2.0 | 0.00 | 0.00 | 0.00 | 88 | 1013.7 | |
| 20260510033215 | 46 | 0.0 | 0.0 | 0.00 | 0.00 | 0.00 | 88 | 1013.7 | |
| 20260510032215 | 46 | 344 | 0.0 | 2.0 | 0.00 | 0.00 | 0.00 | 88 | 1013.7 |
| 20260510031215 | 46 | 0.0 | 0.0 | 0.00 | 0.00 | 0.00 | 88 | 1013.7 | |
| 20260510030215 | 46 | 0.0 | 0.0 | 0.00 | 0.00 | 0.00 | 88 | 1013.8 | |
| 20260510025215 | 45 | 0.0 | 0.0 | 0.00 | 0.00 | 0.00 | 87 | 1013.8 | |
| 20260510024215 | 46 | 0.0 | 0.0 | 0.00 | 0.00 | 0.00 | 87 | 1013.8 | |
| 20260510023216 | 46 | 0.0 | 0.0 | 0.00 | 0.00 | 0.00 | 87 | 1013.8 | |
| 20260510022215 | 46 | 0.0 | 0.0 | 0.00 | 0.00 | 0.00 | 86 | 1013.9 | |
| 20260510021215 | 46 | 0.0 | 0.0 | 0.00 | 0.00 | 0.00 | 86 | 1013.9 | |
| 20260510020215 | 46 | 0.0 | 0.0 | 0.00 | 0.00 | 0.00 | 86 | 1014.0 | |
| 20260510015215 | 47 | 0.0 | 0.0 | 0.00 | 0.00 | 0.00 | 87 | 1013.9 | |
| 20260510014236 | 47 | 0.0 | 0.0 | 0.00 | 0.00 | 0.00 | 86 | 1014.2 | |
| 20260510013215 | 47 | 0.0 | 0.0 | 0.00 | 0.00 | 0.00 | 86 | 1014.2 | |
| 20260510012255 | 47 | 0.0 | 0.0 | 0.00 | 0.00 | 0.00 | 86 | 1014.1 | |
| 20260510011235 | 47 | 0.0 | 0.0 | 0.00 | 0.00 | 0.00 | 86 | 1014.0 | |
| 20260510010215 | 47 | 0.0 | 0.0 | 0.00 | 0.00 | 0.00 | 86 | 1014.1 | |
| 20260510005215 | 47 | 0.0 | 0.0 | 0.00 | 0.00 | 0.00 | 86 | 1014.2 | |
| 20260510004215 | 47 | 0.0 | 0.0 | 0.00 | 0.00 | 0.00 | 86 | 1014.3 | |
| 20260510003215 | 47 | 0.0 | 0.0 | 0.00 | 0.00 | 0.00 | 86 | 1014.3 | |
| 20260510002215 | 47 | 0.0 | 0.0 | 0.00 | 0.00 | 0.00 | 86 | 1014.4 | |
| 20260510001215 | 47 | 0.0 | 0.0 | 0.00 | 0.00 | 0.00 | 86 | 1014.4 | |
| 20260510000218 | 47 | 0.0 | 0.0 | 0.00 | 0.00 | 0.00 | 86 | 1014.5 | |
| 20260509235237 | 47 | 0.0 | 0.0 | 0.00 | 0.00 | 0.00 | 86 | 1014.5 | |
| 20260509234217 | 47 | 0.0 | 0.0 | 0.00 | 0.00 | 0.00 | 86 | 1014.6 | |
| 20260509233217 | 47 | 0.0 | 0.0 | 0.00 | 0.00 | 0.00 | 86 | 1014.6 | |
| 20260509232215 | 47 | 0.0 | 0.0 | 0.00 | 0.00 | 0.00 | 85 | 1014.6 | |
| 20260509231217 | 47 | 0.0 | 0.0 | 0.00 | 0.00 | 0.00 | 85 | 1014.7 | |
| 20260509230217 | 47 | 0.0 | 0.0 | 0.00 | 0.00 | 0.00 | 86 | 1014.7 | |
| 20260509225217 | 47 | 0.0 | 0.0 | 0.00 | 0.00 | 0.00 | 85 | 1014.7 | |
| 20260509224217 | 47 | 0.0 | 0.0 | 0.00 | 0.00 | 0.00 | 85 | 1014.8 | |
| 20260509223217 | 47 | 0.0 | 0.0 | 0.00 | 0.00 | 0.00 | 85 | 1014.8 | |
| 20260509222217 | 47 | 0.0 | 0.0 | 0.00 | 0.00 | 0.00 | 84 | 1014.8 | |
| 20260509221217 | 47 | 0.0 | 0.0 | 0.00 | 0.00 | 0.00 | 83 | 1014.8 | |
| 20260509220217 | 48 | 0.0 | 0.0 | 0.00 | 0.00 | 0.00 | 83 | 1014.8 | |
| 20260509215235 | 48 | 0.0 | 0.0 | 0.00 | 0.00 | 0.00 | 82 | 1014.7 | |
| 20260509214215 | 48 | 0.0 | 0.0 | 0.00 | 0.00 | 0.00 | 81 | 1014.8 | |
| 20260509213235 | 49 | 0.0 | 0.0 | 0.00 | 0.00 | 0.00 | 81 | 1014.8 | |
| 20260509212217 | 49 | 0.0 | 0.0 | 0.00 | 0.00 | 0.00 | 80 | 1014.8 | |
| 20260509211217 | 50 | 0.0 | 0.0 | 0.00 | 0.00 | 0.00 | 80 | 1014.9 | |
| 20260509210215 | 50 | 0.0 | 0.0 | 0.00 | 0.00 | 0.00 | 79 | 1014.8 | |
| 20260509205217 | 50 | 0.0 | 0.0 | 0.00 | 0.00 | 0.00 | 77 | 1014.9 | |
| 20260509204357 | 51 | 0.0 | 0.0 | 0.00 | 0.00 | 0.00 | 75 | 1015.0 | |
| 20260509203217 | 51 | 0.0 | 0.0 | 0.00 | 0.00 | 0.00 | 74 | 1015.0 | |
| 20260509202217 | 52 | 0.0 | 0.0 | 0.00 | 0.00 | 0.00 | 73 | 1014.9 | |
| 20260509201217 | 52 | 0.0 | 0.0 | 0.00 | 0.00 | 0.00 | 72 | 1014.8 | |
| 20260509200237 | 53 | 0.0 | 0.0 | 0.00 | 0.00 | 0.00 | 70 | 1014.9 | |
| 20260509195217 | 54 | 0.0 | 0.0 | 0.00 | 0.00 | 0.00 | 68 | 1014.9 | |
| 20260509194217 | 54 | 0.0 | 0.0 | 0.00 | 0.00 | 0.00 | 67 | 1014.8 | |
| 20260509193217 | 55 | 0.0 | 0.0 | 0.00 | 0.00 | 0.00 | 64 | 1014.8 | |
| 20260509192217 | 56 | 0.0 | 0.0 | 0.00 | 0.00 | 0.00 | 62 | 1014.7 | |
| 20260509191217 | 57 | 0.0 | 0.0 | 0.00 | 0.00 | 0.00 | 61 | 1014.7 | |
| 20260509190217 | 58 | 0.0 | 0.0 | 0.00 | 0.00 | 0.00 | 58 | 1014.8 |